Time;durP1;ratioP1;P1;durP2;ratioP2;P2;SDS_P1;SDS_P2;PMS_P1;PMS_P2;Temp;Humidity;BMP_temperature;BMP_pressure;BME280_temperature;BME280_humidity;BME280_pressure;Samples;Min_cycle;Max_cycle;Signal;HPM_P1;HPM_P2
2023/09/08 00:00:06;;;;;;;5.47;1.80;;;;;;;37.85;38.23;99898.53;7398801;19;20010;-60
2023/09/08 00:02:33;;;;;;;8.13;1.77;;;;;;;37.79;38.41;99904.81;7397266;19;20474;-60
2023/09/08 00:04:59;;;;;;;3.72;1.17;;;;;;;37.55;38.40;99900.22;7400854;19;20454;-60
2023/09/08 00:07:25;;;;;;;3.70;1.73;;;;;;;37.81;38.04;99907.09;7396085;19;20010;-60
2023/09/08 00:09:51;;;;;;;6.00;1.00;;;;;;;37.97;37.75;99893.91;7396886;19;20023;-60
2023/09/08 00:12:17;;;;;;;3.63;1.33;;;;;;;37.95;38.13;99878.53;7401648;19;20011;-60
2023/09/08 00:14:44;;;;;;;7.95;1.70;;;;;;;38.04;37.94;99883.25;7398066;19;20074;-59
2023/09/08 00:17:10;;;;;;;1.35;0.93;;;;;;;37.92;37.58;99876.97;7397890;19;20494;-59
2023/09/08 00:19:36;;;;;;;7.45;1.30;;;;;;;37.98;37.89;99877.22;7397840;19;20114;-60
2023/09/08 00:22:05;;;;;;;3.58;2.05;;;;;;;37.79;37.71;99880.81;7398418;19;20034;-60
2023/09/08 00:24:31;;;;;;;2.83;1.48;;;;;;;37.77;37.41;99874.94;7398942;19;20006;-60
2023/09/08 00:26:58;;;;;;;5.65;1.98;;;;;;;37.69;37.69;99883.31;7395911;19;20019;-60
2023/09/08 00:29:24;;;;;;;4.75;1.27;;;;;;;37.81;37.70;99878.00;7397913;19;20063;-60
2023/09/08 00:31:50;;;;;;;4.10;2.00;;;;;;;37.74;37.50;99879.16;7395877;19;20044;-61
2023/09/08 00:34:16;;;;;;;3.47;1.90;;;;;;;37.74;37.71;99874.09;7397653;19;20011;-60
2023/09/08 00:36:42;;;;;;;3.38;1.65;;;;;;;37.60;37.82;99872.81;7396074;19;20061;-60
2023/09/08 00:39:09;;;;;;;3.63;1.88;;;;;;;37.54;37.77;99873.28;7393939;19;20014;-60
2023/09/08 00:41:35;;;;;;;17.85;1.20;;;;;;;37.42;37.88;99866.25;7399163;19;20014;-60
2023/09/08 00:44:02;;;;;;;3.17;1.75;;;;;;;37.31;37.49;99867.22;7397957;19;20031;-60
2023/09/08 00:46:28;;;;;;;3.65;1.38;;;;;;;37.33;37.99;99876.78;7400453;19;20362;-61
2023/09/08 00:48:55;;;;;;;2.17;1.35;;;;;;;37.37;37.87;99879.13;7395934;19;20070;-61
2023/09/08 00:51:22;;;;;;;6.30;1.25;;;;;;;37.35;37.42;99873.22;7397338;19;20026;-61
2023/09/08 00:53:49;;;;;;;2.33;1.75;;;;;;;37.29;37.62;99872.97;7396001;19;20015;-61
2023/09/08 00:56:16;;;;;;;2.90;1.08;;;;;;;37.32;37.84;99863.66;7399474;19;20071;-60
2023/09/08 00:58:43;;;;;;;1.85;1.08;;;;;;;37.10;37.68;99869.31;7395534;19;20018;-60
2023/09/08 01:01:09;;;;;;;3.72;1.45;;;;;;;37.08;37.86;99869.22;7396424;19;20066;-61
2023/09/08 01:03:35;;;;;;;9.75;1.55;;;;;;;37.01;37.58;99873.31;7395805;19;20013;-60
2023/09/08 01:06:02;;;;;;;8.43;1.38;;;;;;;36.69;38.05;99880.59;7399564;19;20014;-61
2023/09/08 01:08:29;;;;;;;2.92;1.65;;;;;;;36.45;38.44;99879.56;7396102;19;20114;-61
2023/09/08 01:10:55;;;;;;;1.98;1.15;;;;;;;36.30;38.37;99880.31;7396501;19;20471;-61
2023/09/08 01:13:22;;;;;;;1.60;0.88;;;;;;;36.21;38.43;99872.66;7395317;19;20084;-60
2023/09/08 01:15:49;;;;;;;6.07;2.00;;;;;;;36.17;38.79;99872.47;7398545;19;20018;-60
2023/09/08 01:18:15;;;;;;;3.05;1.15;;;;;;;36.24;38.46;99877.13;7394539;19;20010;-61
2023/09/08 01:20:48;;;;;;;2.83;1.38;;;;;;;36.28;38.33;99872.25;7394809;19;20030;-60
2023/09/08 01:23:19;;;;;;;4.93;1.80;;;;;;;36.36;38.41;99866.06;7397769;19;20010;-61
2023/09/08 01:25:54;;;;;;;3.72;1.95;;;;;;;36.33;38.25;99867.38;7399026;19;20056;-61
2023/09/08 01:28:21;;;;;;;2.63;1.38;;;;;;;36.18;38.07;99860.19;7394458;19;20105;-61
2023/09/08 01:30:48;;;;;;;2.28;1.38;;;;;;;36.63;37.39;99853.47;7395767;19;20011;-61
2023/09/08 01:33:15;;;;;;;1.20;0.80;;;;;;;36.99;37.42;99872.47;7395910;19;20018;-61
2023/09/08 01:35:44;;;;;;;4.47;1.35;;;;;;;36.87;37.37;99871.91;7397382;19;20006;-60
2023/09/08 01:38:11;;;;;;;1.23;0.82;;;;;;;36.02;38.02;99867.44;7394964;19;20352;-60
2023/09/08 01:40:37;;;;;;;1.25;0.85;;;;;;;36.01;38.10;99866.69;7394801;19;20372;-60
2023/09/08 01:43:03;;;;;;;2.85;0.98;;;;;;;35.99;38.14;99863.69;7393032;19;20014;-60
2023/09/08 01:45:29;;;;;;;4.18;1.55;;;;;;;35.94;38.31;99855.41;7395884;19;20457;-60
2023/09/08 01:47:56;;;;;;;2.00;1.33;;;;;;;35.21;39.33;99851.19;7394490;19;20524;-60
2023/09/08 01:50:24;;;;;;;3.08;1.48;;;;;;;35.95;38.08;99857.72;7396036;19;20015;-60
2023/09/08 01:52:51;;;;;;;3.75;1.65;;;;;;;36.13;38.31;99860.66;7393610;19;20026;-60
2023/09/08 01:55:17;;;;;;;2.08;0.75;;;;;;;35.93;38.10;99857.56;7395523;19;20475;-60
2023/09/08 01:57:44;;;;;;;2.17;1.02;;;;;;;36.00;38.45;99858.63;7392107;19;20014;-60
2023/09/08 02:00:12;;;;;;;3.17;1.58;;;;;;;36.02;38.19;99859.47;7393591;19;20006;-60
2023/09/08 02:02:41;;;;;;;3.10;0.85;;;;;;;36.04;38.33;99858.81;7393968;19;20047;-60
2023/09/08 02:05:08;;;;;;;5.15;1.63;;;;;;;36.07;38.28;99855.34;7395648;19;20014;-60
2023/09/08 02:07:35;;;;;;;2.95;1.35;;;;;;;36.00;38.20;99852.81;7392979;19;20455;-60
2023/09/08 02:10:01;;;;;;;4.78;2.10;;;;;;;35.90;37.99;99853.09;7394201;19;20019;-61
2023/09/08 02:12:27;;;;;;;1.63;1.27;;;;;;;35.97;38.29;99848.34;7397528;19;20018;-61
2023/09/08 02:14:55;;;;;;;13.98;2.05;;;;;;;35.90;38.17;99849.44;7394836;19;20018;-61
2023/09/08 02:17:21;;;;;;;6.22;1.23;;;;;;;35.88;38.00;99855.13;7392882;19;20007;-60
2023/09/08 02:19:47;;;;;;;3.63;0.88;;;;;;;35.84;37.84;99852.06;7394867;19;20015;-60
2023/09/08 02:22:14;;;;;;;2.97;1.33;;;;;;;35.72;38.12;99847.19;7394564;19;20332;-61
2023/09/08 02:24:40;;;;;;;3.63;1.20;;;;;;;35.75;38.31;99850.94;7394819;19;20006;-60
2023/09/08 02:27:06;;;;;;;3.28;1.58;;;;;;;35.76;37.96;99853.16;7392254;19;20127;-61
2023/09/08 02:29:32;;;;;;;4.10;1.58;;;;;;;35.76;38.30;99846.63;7393540;19;20058;-61
2023/09/08 02:31:59;;;;;;;4.28;1.35;;;;;;;35.69;37.96;99851.38;7392578;19;20094;-61
2023/09/08 02:34:25;;;;;;;1.00;0.88;;;;;;;34.82;39.14;99842.75;7393638;19;20023;-61
2023/09/08 02:36:51;;;;;;;2.35;1.30;;;;;;;35.50;38.46;99846.13;7394190;19;20347;-61
2023/09/08 02:39:23;;;;;;;1.70;1.23;;;;;;;35.38;38.49;99841.88;7391416;19;20042;-60
2023/09/08 02:41:49;;;;;;;6.75;1.70;;;;;;;35.38;38.48;99844.78;7395703;19;20007;-60
2023/09/08 02:44:15;;;;;;;3.03;1.15;;;;;;;35.42;38.39;99847.88;7393216;19;20006;-60
2023/09/08 02:46:43;;;;;;;6.65;1.88;;;;;;;35.32;38.75;99851.06;7393224;19;20015;-61
2023/09/08 02:49:09;;;;;;;6.53;2.20;;;;;;;35.17;38.70;99840.19;7392757;19;20058;-61
2023/09/08 02:51:35;;;;;;;1.75;0.85;;;;;;;35.26;38.33;99847.84;7392429;19;20015;-60
2023/09/08 02:54:02;;;;;;;2.67;1.27;;;;;;;35.73;37.70;99853.75;7392070;19;20014;-60
2023/09/08 02:56:28;;;;;;;7.20;1.60;;;;;;;35.87;37.64;99860.19;7395206;19;20010;-60
2023/09/08 02:58:54;;;;;;;2.28;1.05;;;;;;;35.86;37.75;99858.69;7391028;19;20042;-60
2023/09/08 03:01:20;;;;;;;3.65;1.48;;;;;;;35.73;38.00;99854.50;7391872;19;20069;-60
2023/09/08 03:03:48;;;;;;;3.17;1.33;;;;;;;35.76;37.90;99847.38;7392775;19;20467;-60
2023/09/08 03:06:17;;;;;;;1.27;1.13;;;;;;;35.69;37.72;99831.09;7395966;19;20459;-60
2023/09/08 03:08:44;;;;;;;2.28;1.15;;;;;;;35.16;37.76;99829.97;7391347;19;20026;-61
2023/09/08 03:11:10;;;;;;;2.05;1.50;;;;;;;35.43;37.57;99826.94;7400524;19;20023;-61
2023/09/08 03:13:36;;;;;;;4.18;0.90;;;;;;;35.44;37.63;99825.53;7401536;19;20011;-60
2023/09/08 03:16:07;;;;;;;2.42;1.42;;;;;;;35.44;37.56;99828.44;7404743;19;20021;-60
2023/09/08 03:18:37;;;;;;;4.47;1.95;;;;;;;35.46;37.57;99831.44;7398788;19;20010;-60
2023/09/08 03:21:09;;;;;;;3.10;0.93;;;;;;;35.59;37.32;99827.75;7399926;19;20014;-61
2023/09/08 03:23:36;;;;;;;5.28;1.58;;;;;;;35.88;37.14;99831.94;7401961;19;20011;-61
2023/09/08 03:26:03;;;;;;;3.72;1.35;;;;;;;35.79;36.87;99840.28;7403493;19;20463;-61
2023/09/08 03:28:29;;;;;;;2.70;1.17;;;;;;;35.52;37.17;99839.72;7398029;19;20351;-61
2023/09/08 03:30:55;;;;;;;2.33;1.33;;;;;;;35.56;37.33;99840.63;7398831;19;20014;-61
2023/09/08 03:33:21;;;;;;;1.33;0.95;;;;;;;35.60;37.17;99828.50;7398220;19;20011;-61
2023/09/08 03:35:47;;;;;;;11.13;3.70;;;;;;;35.68;37.12;99832.50;7400781;19;20011;-61
2023/09/08 03:38:14;;;;;;;3.13;1.58;;;;;;;35.63;37.07;99833.72;7398084;19;20039;-61
2023/09/08 03:40:40;;;;;;;1.83;1.00;;;;;;;35.53;36.99;99829.59;7398672;19;20015;-61
2023/09/08 03:43:07;;;;;;;3.15;0.73;;;;;;;35.40;37.44;99821.72;7397681;19;20015;-61
2023/09/08 03:45:33;;;;;;;11.15;1.38;;;;;;;35.91;37.10;99839.34;7401759;19;20006;-61
2023/09/08 03:47:59;;;;;;;4.75;1.42;;;;;;;35.55;36.81;99826.81;7398513;19;20107;-61
2023/09/08 03:50:26;;;;;;;5.70;1.52;;;;;;;35.34;36.96;99830.88;7398066;19;20487;-61
2023/09/08 03:52:53;;;;;;;1.98;1.17;;;;;;;35.30;37.03;99824.88;7398340;19;20046;-61
2023/09/08 03:55:19;;;;;;;5.32;2.17;;;;;;;35.23;37.08;99819.44;7399541;19;20088;-60
2023/09/08 03:57:45;;;;;;;3.13;1.80;;;;;;;35.19;36.99;99825.78;7397398;19;20018;-60
2023/09/08 04:00:12;;;;;;;2.60;0.40;;;;;;;34.97;37.36;99834.13;7398090;19;20031;-60
2023/09/08 04:02:43;;;;;;;2.50;1.30;;;;;;;35.00;37.26;99832.06;7397849;19;20015;-60
2023/09/08 04:05:10;;;;;;;4.60;1.75;;;;;;;35.22;37.13;99830.28;7400648;19;20339;-61
2023/09/08 04:07:37;;;;;;;0.98;0.70;;;;;;;35.30;37.14;99836.47;7398111;19;20021;-61
2023/09/08 04:10:04;;;;;;;1.60;1.08;;;;;;;35.38;36.99;99848.44;7397366;19;20010;-61
2023/09/08 04:12:30;;;;;;;1.65;1.23;;;;;;;35.19;37.33;99837.38;7401945;19;20078;-61
2023/09/08 04:14:56;;;;;;;3.97;1.02;;;;;;;34.88;37.65;99840.13;7402572;19;20074;-61
2023/09/08 04:17:22;;;;;;;6.05;0.80;;;;;;;34.57;38.01;99842.88;7396433;19;20010;-60
2023/09/08 04:19:49;;;;;;;2.47;0.75;;;;;;;34.51;37.90;99851.25;7397675;19;20019;-60
2023/09/08 04:22:15;;;;;;;1.75;0.75;;;;;;;34.59;37.72;99845.91;7397615;19;20021;-60
2023/09/08 04:24:41;;;;;;;0.88;0.55;;;;;;;34.44;37.82;99852.34;7397899;19;20018;-61
2023/09/08 04:27:09;;;;;;;7.28;1.67;;;;;;;34.68;37.35;99854.34;7398003;19;20096;-61
2023/09/08 04:29:35;;;;;;;5.50;1.70;;;;;;;34.70;37.64;99862.38;7396922;19;20017;-61
2023/09/08 04:32:08;;;;;;;3.63;1.58;;;;;;;34.34;37.98;99864.88;7395881;19;20474;-61
2023/09/08 04:34:41;;;;;;;8.07;1.20;;;;;;;34.76;37.14;99865.59;7396123;19;20006;-60
2023/09/08 04:37:08;;;;;;;2.60;0.65;;;;;;;34.83;37.42;99865.25;7396100;19;20014;-61
2023/09/08 04:39:35;;;;;;;6.75;1.85;;;;;;;34.56;37.46;99867.44;7397183;19;20478;-60
2023/09/08 04:42:01;;;;;;;2.80;1.25;;;;;;;34.63;37.05;99869.25;7399505;19;20021;-61
2023/09/08 04:44:28;;;;;;;2.75;1.48;;;;;;;34.47;37.40;99865.50;7395838;19;20010;-61
2023/09/08 04:46:55;;;;;;;2.50;0.93;;;;;;;34.57;37.54;99858.09;7396022;19;20375;-61
2023/09/08 04:49:21;;;;;;;2.72;1.10;;;;;;;34.51;37.88;99871.50;7396588;19;20034;-60
2023/09/08 04:51:47;;;;;;;1.38;0.82;;;;;;;34.37;37.78;99877.28;7396179;19;20006;-60
2023/09/08 04:54:16;;;;;;;2.35;1.13;;;;;;;34.25;37.58;99874.50;7395229;19;20034;-60
2023/09/08 04:56:43;;;;;;;3.70;0.95;;;;;;;34.45;37.51;99874.06;7395125;19;20034;-60
2023/09/08 04:59:09;;;;;;;4.50;2.10;;;;;;;34.49;37.18;99880.06;7393117;19;20617;-60
2023/09/08 05:01:37;;;;;;;8.73;1.40;;;;;;;34.51;37.54;99875.16;7396491;19;20018;-59
2023/09/08 05:04:04;;;;;;;2.97;1.27;;;;;;;34.76;37.12;99874.28;7396323;19;20010;-60
2023/09/08 05:06:31;;;;;;;4.38;1.13;;;;;;;34.64;37.25;99876.53;7399636;19;20467;-60
2023/09/08 05:08:59;;;;;;;3.35;1.60;;;;;;;34.52;37.59;99870.88;7395835;19;20015;-61
2023/09/08 05:11:26;;;;;;;4.68;1.73;;;;;;;34.06;37.84;99872.03;7398163;19;20066;-61
2023/09/08 05:13:53;;;;;;;6.13;1.85;;;;;;;34.17;37.86;99862.50;7394697;19;20021;-62
2023/09/08 05:16:26;;;;;;;3.58;1.55;;;;;;;34.49;37.56;99874.25;7401606;19;20011;-61
2023/09/08 05:18:52;;;;;;;2.08;1.20;;;;;;;34.51;37.74;99877.28;7393782;19;20011;-61
2023/09/08 05:21:18;;;;;;;1.33;0.68;;;;;;;34.53;37.18;99871.59;7395472;19;20420;-61
2023/09/08 05:23:45;;;;;;;1.98;0.75;;;;;;;34.64;36.93;99882.31;7398789;19;20428;-61
2023/09/08 05:26:12;;;;;;;3.50;1.20;;;;;;;34.56;37.41;99881.91;7394856;19;20459;-62
2023/09/08 05:28:38;;;;;;;2.00;1.52;;;;;;;34.77;36.88;99878.66;7399100;19;20082;-62
2023/09/08 05:31:05;;;;;;;1.23;0.88;;;;;;;35.15;36.41;99888.56;7394988;19;20078;-61
2023/09/08 05:33:32;;;;;;;0.98;0.63;;;;;;;35.23;36.33;99886.81;7394267;19;20018;-61
2023/09/08 05:35:58;;;;;;;3.95;1.35;;;;;;;34.97;36.45;99899.94;7393980;19;20010;-61
2023/09/08 05:38:25;;;;;;;4.15;1.33;;;;;;;34.88;36.92;99887.22;7397370;19;20019;-61
2023/09/08 05:40:51;;;;;;;1.55;0.98;;;;;;;35.02;36.49;99882.16;7395503;19;20014;-61
2023/09/08 05:43:18;;;;;;;1.60;1.08;;;;;;;35.42;36.26;99882.63;7394686;19;20014;-61
2023/09/08 05:45:44;;;;;;;7.00;1.63;;;;;;;35.59;36.15;99885.69;7394514;19;20018;-61
2023/09/08 05:48:10;;;;;;;3.80;1.27;;;;;;;35.25;36.36;99881.13;7394437;19;20018;-61
2023/09/08 05:50:37;;;;;;;3.60;1.77;;;;;;;35.45;36.37;99879.22;7398100;19;20062;-60
2023/09/08 05:53:04;;;;;;;4.75;1.63;;;;;;;35.30;36.60;99888.63;7393903;19;20043;-60
2023/09/08 05:55:31;;;;;;;1.23;1.00;;;;;;;35.48;36.23;99895.31;7393796;19;20014;-60
2023/09/08 05:57:57;;;;;;;5.35;1.88;;;;;;;35.23;36.75;99892.59;7392285;19;20021;-60
2023/09/08 06:00:23;;;;;;;2.50;1.85;;;;;;;35.31;36.58;99889.34;7392774;19;20014;-59
2023/09/08 06:02:51;;;;;;;2.33;1.25;;;;;;;35.00;37.32;99887.06;7398222;19;20014;-61
2023/09/08 06:05:18;;;;;;;4.35;1.60;;;;;;;35.13;37.37;99883.41;7393928;19;20039;-60
2023/09/08 06:07:44;;;;;;;6.20;2.00;;;;;;;35.28;37.45;99879.78;7393712;19;20045;-61
2023/09/08 06:10:11;;;;;;;8.77;1.65;;;;;;;35.42;37.33;99883.41;7392761;19;20010;-61
2023/09/08 06:12:37;;;;;;;9.77;3.10;;;;;;;35.63;37.62;99885.88;7396165;19;20007;-61
2023/09/08 06:15:05;;;;;;;4.43;1.95;;;;;;;35.86;37.43;99881.13;7392304;19;20014;-61
2023/09/08 06:17:33;;;;;;;6.57;1.25;;;;;;;36.22;36.96;99886.47;7393342;19;20010;-61
2023/09/08 06:19:59;;;;;;;6.68;1.63;;;;;;;36.57;37.06;99882.97;7393374;19;20456;-62
2023/09/08 06:22:26;;;;;;;2.10;1.45;;;;;;;36.65;36.93;99892.03;7393384;19;20398;-61
2023/09/08 06:24:53;;;;;;;1.02;0.65;;;;;;;36.85;36.70;99895.81;7397470;19;20682;-61
2023/09/08 06:27:19;;;;;;;3.15;0.90;;;;;;;37.06;36.32;99900.34;7396704;19;20231;-61
2023/09/08 06:29:45;;;;;;;4.57;2.40;;;;;;;37.00;36.69;99906.66;7392299;19;20026;-62
2023/09/08 06:32:14;;;;;;;15.35;2.15;;;;;;;36.78;36.89;99905.66;7391725;19;20378;-62
2023/09/08 06:34:43;;;;;;;3.78;2.00;;;;;;;36.86;37.04;99906.00;7392072;19;20478;-62
2023/09/08 06:37:10;;;;;;;4.78;2.03;;;;;;;37.10;36.68;99907.06;7396323;19;20021;-62
2023/09/08 06:39:37;;;;;;;3.55;1.08;;;;;;;37.25;36.76;99920.78;7392483;19;20007;-62
2023/09/08 06:42:04;;;;;;;2.25;1.23;;;;;;;37.16;36.88;99918.22;7395797;19;20027;-62
2023/09/08 06:44:30;;;;;;;6.28;1.60;;;;;;;36.78;37.54;99917.28;7390972;19;20473;-62
2023/09/08 06:46:57;;;;;;;8.93;1.88;;;;;;;36.86;37.43;99919.81;7396183;19;20029;-62
2023/09/08 06:49:25;;;;;;;1.75;0.95;;;;;;;36.92;37.47;99915.03;7392898;19;20028;-62
2023/09/08 06:51:51;;;;;;;1.70;1.05;;;;;;;37.06;37.67;99920.66;7392650;19;20383;-62
2023/09/08 06:54:18;;;;;;;2.67;1.60;;;;;;;37.11;37.37;99920.19;7392152;19;20456;-62
2023/09/08 06:56:45;;;;;;;5.78;1.73;;;;;;;37.29;37.42;99917.31;7391790;19;20455;-62
2023/09/08 06:59:12;;;;;;;3.90;1.38;;;;;;;37.39;37.70;99920.63;7393773;19;20015;-62
2023/09/08 07:01:38;;;;;;;3.30;1.70;;;;;;;37.50;37.31;99930.50;7391668;19;20014;-62
2023/09/08 07:04:05;;;;;;;7.65;3.10;;;;;;;37.52;37.63;99913.16;7391917;19;20011;-62
2023/09/08 07:06:32;;;;;;;8.18;2.25;;;;;;;38.08;36.89;99912.50;7392541;19;20011;-62
2023/09/08 07:08:59;;;;;;;6.82;2.72;;;;;;;38.20;36.65;99915.88;7391491;19;20515;-62
2023/09/08 07:11:26;;;;;;;2.28;1.50;;;;;;;38.27;36.72;99923.41;7396189;19;20014;-62
2023/09/08 07:13:52;;;;;;;5.15;1.85;;;;;;;38.39;37.15;99923.88;7393115;19;20014;-62
2023/09/08 07:16:19;;;;;;;2.15;1.50;;;;;;;38.38;36.73;99928.19;7391552;19;20477;-62
2023/09/08 07:18:45;;;;;;;5.60;1.98;;;;;;;37.89;37.50;99919.78;7391092;19;20352;-62
2023/09/08 07:21:11;;;;;;;4.45;2.40;;;;;;;38.04;37.32;99915.25;7392517;19;20011;-62
2023/09/08 07:23:38;;;;;;;8.85;1.98;;;;;;;37.99;37.85;99912.88;7395703;19;20019;-62
2023/09/08 07:26:06;;;;;;;7.20;2.75;;;;;;;37.99;37.79;99916.50;7391078;19;20454;-63
2023/09/08 07:28:34;;;;;;;5.47;2.58;;;;;;;37.98;37.73;99920.84;7391686;19;20463;-62
2023/09/08 07:31:04;;;;;;;8.65;2.17;;;;;;;38.20;37.95;99918.03;7391873;19;20022;-63
2023/09/08 07:33:32;;;;;;;7.43;2.65;;;;;;;38.25;37.62;99920.44;7392375;19;20512;-63
2023/09/08 07:36:07;;;;;;;8.20;2.47;;;;;;;38.24;38.12;99918.19;7396003;19;20017;-62
2023/09/08 07:38:34;;;;;;;8.18;2.88;;;;;;;38.26;38.34;99916.13;7389850;19;20023;-62
2023/09/08 07:41:03;;;;;;;6.03;2.35;;;;;;;38.24;38.61;99927.66;7394125;19;20014;-62
2023/09/08 07:43:31;;;;;;;9.30;2.75;;;;;;;38.41;38.74;99926.88;7390632;19;20015;-62
2023/09/08 07:45:57;;;;;;;10.60;3.17;;;;;;;39.06;37.92;99923.34;7393474;19;20353;-62
2023/09/08 07:48:23;;;;;;;11.02;3.28;;;;;;;39.55;37.70;99932.28;7390033;19;20018;-62
2023/09/08 07:50:49;;;;;;;5.22;2.85;;;;;;;39.75;37.59;99921.31;7390343;19;20011;-62
2023/09/08 07:53:15;;;;;;;9.45;2.97;;;;;;;39.98;37.53;99919.84;7392409;19;20340;-62
2023/09/08 07:55:42;;;;;;;7.78;2.42;;;;;;;38.00;40.15;99917.25;7393720;19;20014;-62
2023/09/08 07:58:08;;;;;;;10.07;3.55;;;;;;;39.66;38.48;99913.72;7396643;19;20474;-61
2023/09/08 08:00:34;;;;;;;6.90;3.13;;;;;;;40.10;37.37;99915.13;7396942;19;20066;-61
2023/09/08 08:03:00;;;;;;;6.28;3.08;;;;;;;40.31;37.36;99919.38;7397670;19;20438;-61
2023/09/08 08:05:27;;;;;;;6.30;3.20;;;;;;;40.65;37.33;99907.94;7400166;19;20019;-62
2023/09/08 08:07:53;;;;;;;9.65;3.33;;;;;;;40.85;36.95;99908.50;7399125;19;20095;-62
2023/09/08 08:10:19;;;;;;;6.00;3.90;;;;;;;40.91;36.97;99905.75;7397993;19;20514;-62
2023/09/08 08:12:45;;;;;;;12.88;4.32;;;;;;;40.95;36.87;99917.53;7396541;19;20014;-62
2023/09/08 08:15:12;;;;;;;6.15;3.20;;;;;;;40.84;36.84;99915.78;7398672;19;20007;-62
2023/09/08 08:17:39;;;;;;;13.23;3.25;;;;;;;40.86;37.15;99915.09;7396236;19;20821;-61
2023/09/08 08:20:10;;;;;;;13.38;4.75;;;;;;;41.27;37.16;99905.94;7396834;19;20017;-55
2023/09/08 08:22:37;;;;;;;7.65;3.55;;;;;;;40.70;37.55;99909.53;7400363;19;20490;-55
2023/09/08 08:25:04;;;;;;;13.88;4.32;;;;;;;40.36;38.15;99917.31;7398569;19;20369;-55
2023/09/08 08:27:33;;;;;;;7.47;3.40;;;;;;;40.68;38.14;99915.31;7397887;19;20462;-53
2023/09/08 08:30:00;;;;;;;8.40;3.83;;;;;;;40.92;38.14;99918.16;7397746;19;20503;-54
2023/09/08 08:32:27;;;;;;;8.52;3.50;;;;;;;41.05;38.16;99914.88;7398029;19;20018;-54
2023/09/08 08:34:53;;;;;;;9.77;4.28;;;;;;;41.13;38.07;99918.00;7394140;19;20478;-55
2023/09/08 08:37:19;;;;;;;11.45;4.80;;;;;;;41.19;38.17;99918.16;7398195;19;20884;-55
2023/09/08 08:39:46;;;;;;;12.13;4.47;;;;;;;41.46;38.02;99917.41;7396499;19;20467;-55
2023/09/08 08:42:13;;;;;;;10.55;4.72;;;;;;;41.68;37.90;99917.19;7401100;19;20032;-55
2023/09/08 08:44:40;;;;;;;14.90;4.82;;;;;;;41.78;37.53;99910.84;7398366;19;20050;-55
2023/09/08 08:47:08;;;;;;;10.38;4.35;;;;;;;41.72;37.93;99914.34;7398184;19;20014;-55
2023/09/08 08:49:34;;;;;;;13.25;4.75;;;;;;;41.91;37.76;99915.53;7398111;19;20014;-55
2023/09/08 08:52:06;;;;;;;14.63;4.43;;;;;;;42.00;37.94;99911.31;7400402;19;20018;-55
2023/09/08 08:54:37;;;;;;;11.40;4.28;;;;;;;41.98;37.94;99917.13;7396375;19;20046;-55
2023/09/08 08:57:03;;;;;;;;;;;;;;;42.01;38.30;99918.66;7396621;19;20014;-55
2023/09/08 08:59:30;;;;;;;11.70;4.07;;;;;;;42.06;38.17;99923.94;7395397;19;19970;-55
2023/09/08 09:01:58;;;;;;;7.00;2.88;;;;;;;42.29;37.80;99928.06;7397288;19;20015;-55
2023/09/08 09:04:25;;;;;;;11.40;4.13;;;;;;;42.39;37.75;99936.34;7396222;19;20025;-55
2023/09/08 09:06:55;;;;;;;14.70;4.80;;;;;;;41.48;38.29;99937.91;7396777;19;20014;-55
2023/09/08 09:09:22;;;;;;;14.50;4.18;;;;;;;42.74;37.71;99930.47;7395241;19;20098;-55
2023/09/08 09:11:49;;;;;;;11.80;4.40;;;;;;;43.24;37.26;99926.97;7400584;19;20014;-55
2023/09/08 09:14:17;;;;;;;8.13;3.88;;;;;;;43.54;36.72;99924.53;7395811;19;20026;-55
2023/09/08 09:16:44;;;;;;;9.85;3.15;;;;;;;43.72;36.42;99927.78;7395719;19;20014;-55
2023/09/08 09:19:25;;;;;;;10.63;3.45;;;;;;;43.51;36.83;99929.63;7395202;19;20018;-55
2023/09/08 09:21:54;;;;;;;9.15;4.13;;;;;;;43.44;37.13;99921.47;7397077;19;20010;-55
2023/09/08 09:24:40;;;;;;;24.02;2.92;;;;;;;43.67;37.49;99929.19;7399604;19;20025;-55
2023/09/08 09:27:07;;;;;;;12.63;3.28;;;;;;;43.95;37.36;99917.84;7395227;19;20003;-55
2023/09/08 09:29:43;;;;;;;8.93;3.95;;;;;;;43.72;37.37;99916.06;7396955;19;20002;-55
2023/09/08 09:32:10;;;;;;;6.78;2.95;;;;;;;44.16;36.65;99910.06;7396626;19;20018;-55
2023/09/08 09:34:46;;;;;;;9.57;4.40;;;;;;;44.42;36.63;99916.28;7395989;19;20370;-55
2023/09/08 09:37:13;;;;;;;10.07;3.03;;;;;;;44.62;35.90;99895.22;7394838;19;20018;-55
2023/09/08 09:39:39;;;;;;;7.43;3.45;;;;;;;44.50;36.05;99901.69;7394748;19;20018;-55
2023/09/08 09:42:06;;;;;;;11.27;2.90;;;;;;;44.65;35.45;99905.50;7400192;19;20019;-63
2023/09/08 09:44:32;;;;;;;12.30;3.88;;;;;;;44.50;35.46;99912.69;7395039;19;20080;-62
2023/09/08 09:47:00;;;;;;;10.23;3.75;;;;;;;44.67;35.38;99923.16;7394946;19;20062;-62
2023/09/08 09:49:31;;;;;;;4.05;1.85;;;;;;;44.82;36.03;99925.56;7393004;19;20011;-62
2023/09/08 09:51:58;;;;;;;6.85;3.08;;;;;;;44.82;35.86;99913.06;7393910;19;20014;-62
2023/09/08 09:54:25;;;;;;;7.50;3.42;;;;;;;44.90;34.91;99919.03;7393310;19;20019;-61
2023/09/08 09:56:52;;;;;;;6.90;2.85;;;;;;;45.01;35.52;99914.69;7394738;19;20010;-62
2023/09/08 09:59:18;;;;;;;4.47;2.70;;;;;;;44.98;35.10;99916.16;7393913;19;20010;-62
2023/09/08 10:01:46;;;;;;;10.32;3.03;;;;;;;44.86;34.61;99919.72;7393964;19;20078;-62
2023/09/08 10:04:12;;;;;;;12.32;4.57;;;;;;;44.82;34.63;99924.81;7393911;19;20010;-62
2023/09/08 10:06:40;;;;;;;7.35;2.85;;;;;;;41.01;40.04;99926.47;7393916;19;20014;-62
2023/09/08 10:09:13;;;;;;;8.20;2.80;;;;;;;44.73;35.67;99915.16;7394101;19;20010;-62
2023/09/08 10:11:48;;;;;;;7.13;2.05;;;;;;;44.89;34.96;99923.44;7397133;19;20347;-62
2023/09/08 10:14:18;;;;;;;24.65;4.35;;;;;;;41.67;39.93;99923.75;7395297;19;20014;-62
2023/09/08 10:16:49;;;;;;;6.30;3.58;;;;;;;45.48;34.83;99915.88;7395092;19;20082;-63
2023/09/08 10:19:16;;;;;;;8.00;2.55;;;;;;;45.42;34.78;99919.47;7390217;19;20014;-62
2023/09/08 10:21:46;;;;;;;7.05;2.15;;;;;;;45.07;34.47;99920.66;7395321;19;20018;-63
2023/09/08 10:24:22;;;;;;;6.13;2.72;;;;;;;44.66;35.76;99918.75;7398620;19;20011;-62
2023/09/08 10:27:08;;;;;;;8.15;3.17;;;;;;;44.56;34.97;99922.31;7394280;19;20391;-63
2023/09/08 10:29:34;;;;;;;8.10;2.47;;;;;;;44.73;34.91;99905.59;7391003;19;20397;-62
2023/09/08 10:32:02;;;;;;;6.90;2.38;;;;;;;44.89;35.72;99912.41;7393879;19;20018;-62
2023/09/08 10:34:30;;;;;;;6.75;3.03;;;;;;;44.59;35.77;99908.38;7394698;19;20015;-62
2023/09/08 10:36:56;;;;;;;6.55;3.10;;;;;;;44.38;36.43;99914.00;7392946;19;20062;-62
2023/09/08 10:39:41;;;;;;;7.72;2.38;;;;;;;44.59;36.14;99897.38;7390176;19;20006;-62
2023/09/08 10:42:16;;;;;;;12.35;3.13;;;;;;;44.52;35.57;99907.59;7395588;19;20010;-62
2023/09/08 10:44:51;;;;;;;8.73;4.00;;;;;;;44.71;35.47;99903.38;7394775;19;20455;-62
2023/09/08 10:47:25;;;;;;;11.35;2.90;;;;;;;44.65;35.54;99912.13;7392378;19;20023;-62
2023/09/08 10:49:54;;;;;;;11.40;3.33;;;;;;;44.62;36.38;99913.56;7394560;19;20010;-62
2023/09/08 10:52:22;;;;;;;9.82;3.40;;;;;;;44.40;36.03;99916.25;7391464;19;20011;-61
2023/09/08 10:54:50;;;;;;;7.72;2.45;;;;;;;44.28;36.34;99910.22;7393280;19;20017;-61
2023/09/08 10:57:20;;;;;;;8.32;2.47;;;;;;;44.58;36.03;99901.03;7393683;19;20035;-61
2023/09/08 10:59:54;;;;;;;9.27;2.50;;;;;;;44.88;35.47;99904.28;7390682;19;20018;-61
2023/09/08 11:02:38;;;;;;;5.80;2.85;;;;;;;44.10;35.84;99904.84;7394200;19;20089;-61
2023/09/08 11:05:10;;;;;;;6.35;2.95;;;;;;;43.97;35.94;99900.25;7392509;19;20015;-62
2023/09/08 11:07:37;;;;;;;10.20;2.60;;;;;;;44.04;36.46;99915.78;7391495;19;20045;-63
2023/09/08 11:10:04;;;;;;;9.00;4.10;;;;;;;43.91;36.43;99914.09;7392741;19;20011;-62
2023/09/08 11:12:31;;;;;;;19.05;3.65;;;;;;;44.65;36.04;99917.28;7398540;19;20014;-61
2023/09/08 11:15:00;;;;;;;23.85;3.13;;;;;;;44.74;36.06;99912.97;7394521;19;20006;-62
2023/09/08 11:17:27;;;;;;;4.30;1.83;;;;;;;44.56;36.36;99918.63;7392433;19;20019;-61
2023/09/08 11:19:54;;;;;;;9.82;3.40;;;;;;;44.04;37.42;99922.41;7392577;19;20007;-62
2023/09/08 11:22:24;;;;;;;7.45;2.53;;;;;;;44.02;37.43;99924.53;7393324;19;20021;-61
2023/09/08 11:24:56;;;;;;;12.85;3.33;;;;;;;44.00;36.95;99933.31;7392187;19;20011;-61
2023/09/08 11:27:23;;;;;;;7.18;3.38;;;;;;;44.07;36.65;99914.34;7391981;19;20498;-61
2023/09/08 11:29:50;;;;;;;8.73;3.65;;;;;;;43.95;36.73;99911.22;7392411;19;20019;-61
2023/09/08 11:32:17;;;;;;;7.20;2.85;;;;;;;43.59;37.64;99914.34;7399027;19;20084;-61